Time;durP1;ratioP1;P1;durP2;ratioP2;P2;SDS_P1;SDS_P2;PMS_P1;PMS_P2;Temp;Humidity;BMP_temperature;BMP_pressure;BME280_temperature;BME280_humidity;BME280_pressure;Samples;Min_cycle;Max_cycle;Signal;HPM_P1;HPM_P2
2023/07/09 00:01:14;;;;;;;8.77;5.93;;;;;;;20.82;100.00;96741.00;5017749;27;101826;-64
2023/07/09 00:03:41;;;;;;;9.70;6.20;;;;;;;20.90;100.00;96751.09;5011035;28;102540;-64
2023/07/09 00:06:09;;;;;;;8.60;6.20;;;;;;;20.91;100.00;96745.38;5010247;28;102877;-64
2023/07/09 00:08:46;;;;;;;9.50;5.93;;;;;;;20.98;100.00;96742.25;5017183;28;102010;-67
2023/07/09 00:11:14;;;;;;;7.23;5.67;;;;;;;20.98;100.00;96744.97;5027057;28;104032;-67
2023/07/09 00:13:41;;;;;;;8.07;5.63;;;;;;;21.04;100.00;96735.63;5030163;27;102464;-67
2023/07/09 00:16:14;;;;;;;8.90;5.90;;;;;;;21.10;100.00;96737.09;5029116;28;101882;-67
2023/07/09 00:18:41;;;;;;;8.40;6.20;;;;;;;21.07;100.00;96730.38;5020489;28;105359;-67
2023/07/09 00:21:08;;;;;;;8.97;6.00;;;;;;;21.03;100.00;96739.44;5008795;28;105507;-67
2023/07/09 00:23:35;;;;;;;8.37;5.67;;;;;;;20.99;100.00;96739.22;4990298;28;102537;-67
2023/07/09 00:26:02;;;;;;;6.73;5.63;;;;;;;20.95;100.00;96745.56;4988544;28;105461;-67
2023/07/09 00:28:31;;;;;;;6.90;6.00;;;;;;;20.69;100.00;96747.22;5020404;28;101839;-67
2023/07/09 00:30:58;;;;;;;7.40;6.10;;;;;;;20.53;100.00;96743.28;5029788;27;102456;-67
2023/07/09 00:33:31;;;;;;;7.10;6.40;;;;;;;20.45;100.00;96744.81;5028628;28;103010;-67
2023/07/09 00:35:59;;;;;;;8.33;6.20;;;;;;;20.30;100.00;96744.31;5029201;28;101830;-67
2023/07/09 00:38:26;;;;;;;6.70;6.00;;;;;;;20.27;100.00;96748.44;5014958;28;105324;-67
2023/07/09 00:41:17;;;;;;;7.60;6.60;;;;;;;20.04;100.00;96754.84;5018562;28;102650;-67
2023/07/09 00:43:46;;;;;;;6.93;6.00;;;;;;;19.99;100.00;96752.22;5032225;28;102033;-64
2023/07/09 00:46:51;;;;;;;8.73;7.17;;;;;;;19.94;100.00;96749.63;5028325;28;105241;-65
2023/07/09 00:49:31;;;;;;;7.73;6.30;;;;;;;19.91;100.00;96755.66;5001834;28;101814;-64
2023/07/09 00:52:02;;;;;;;7.60;5.93;;;;;;;19.89;100.00;96767.84;5030584;27;102409;-64
2023/07/09 00:54:36;;;;;;;7.90;6.00;;;;;;;19.96;100.00;96758.25;5029560;27;103236;-64
2023/07/09 00:57:07;;;;;;;8.57;6.60;;;;;;;19.88;100.00;96764.34;5027563;27;101895;-64
2023/07/09 00:59:36;;;;;;;6.77;6.03;;;;;;;19.89;100.00;96770.53;5008808;28;103686;-64
2023/07/09 01:02:03;;;;;;;7.50;6.37;;;;;;;19.85;100.00;96773.03;5013484;28;105305;-64
2023/07/09 01:04:30;;;;;;;7.03;6.33;;;;;;;19.87;100.00;96768.13;5028680;28;101916;-64
2023/07/09 01:06:58;;;;;;;6.97;5.77;;;;;;;19.76;100.00;96771.31;5031181;28;105200;-64
2023/07/09 01:09:26;;;;;;;7.73;6.27;;;;;;;19.73;100.00;96763.84;5030368;27;101844;-65
2023/07/09 01:12:00;;;;;;;7.47;6.10;;;;;;;19.69;100.00;96773.63;5028164;27;103038;-65
2023/07/09 01:14:28;;;;;;;6.90;5.97;;;;;;;19.66;100.00;96776.91;5008773;28;105380;-65
2023/07/09 01:17:02;;;;;;;7.47;5.90;;;;;;;19.60;100.00;96778.91;5009885;28;101788;-65
2023/07/09 01:19:32;;;;;;;6.60;6.00;;;;;;;19.47;100.00;96781.59;5013445;28;103035;-65
2023/07/09 01:22:02;;;;;;;6.87;5.70;;;;;;;19.50;100.00;96775.59;5007969;28;105980;-65
2023/07/09 01:24:53;;;;;;;6.50;5.40;;;;;;;19.50;100.00;96781.00;5008694;28;101786;-65
2023/07/09 01:27:23;;;;;;;6.03;5.13;;;;;;;19.47;100.00;96781.59;5017653;28;105115;-65
2023/07/09 01:29:50;;;;;;;7.37;6.00;;;;;;;19.54;100.00;96776.59;4992911;28;101782;-65
2023/07/09 01:32:19;;;;;;;6.90;5.63;;;;;;;19.69;100.00;96784.41;4994785;28;105125;-65
2023/07/09 01:34:47;;;;;;;8.03;5.90;;;;;;;19.70;100.00;96775.22;5009707;27;103799;-65
2023/07/09 01:37:17;;;;;;;7.93;6.27;;;;;;;19.60;100.00;96780.78;5031963;28;101873;-65
2023/07/09 01:39:45;;;;;;;7.37;6.03;;;;;;;19.58;100.00;96780.31;5016456;27;102404;-64
2023/07/09 01:42:12;;;;;;;6.93;5.83;;;;;;;19.43;100.00;96777.88;5030221;28;103647;-65
2023/07/09 01:44:40;;;;;;;6.10;5.50;;;;;;;19.23;100.00;96783.63;5031375;28;101875;-65
2023/07/09 01:47:07;;;;;;;7.27;5.60;;;;;;;19.01;100.00;96783.41;5031876;28;105429;-65
2023/07/09 01:49:34;;;;;;;8.00;6.00;;;;;;;19.00;100.00;96779.09;5021099;27;101871;-65
2023/07/09 01:52:02;;;;;;;7.53;5.70;;;;;;;18.98;100.00;96779.41;5015038;28;101984;-66
2023/07/09 01:54:33;;;;;;;8.63;6.00;;;;;;;19.02;100.00;96779.63;5031466;28;103180;-66
2023/07/09 01:57:16;;;;;;;7.40;6.10;;;;;;;19.06;100.00;96783.31;5031555;28;101955;-65
2023/07/09 01:59:44;;;;;;;7.77;5.87;;;;;;;18.96;100.00;96786.97;5021491;28;105699;-65
2023/07/09 02:02:15;;;;;;;6.60;5.73;;;;;;;18.89;100.00;96780.34;5010835;28;105164;-65
2023/07/09 02:04:42;;;;;;;6.83;6.10;;;;;;;18.92;100.00;96790.56;5011428;28;101807;-66
2023/07/09 02:07:09;;;;;;;6.50;5.90;;;;;;;18.92;100.00;96790.56;5012767;28;102298;-65
2023/07/09 02:09:38;;;;;;;7.63;5.93;;;;;;;18.76;100.00;96783.78;5031683;28;102518;-64
2023/07/09 02:12:05;;;;;;;6.10;5.50;;;;;;;18.77;100.00;96782.69;5034591;28;102023;-64
2023/07/09 02:14:32;;;;;;;7.07;5.87;;;;;;;18.79;100.00;96788.59;5030446;28;105338;-64
2023/07/09 02:16:59;;;;;;;8.23;5.97;;;;;;;18.84;100.00;96786.63;5031357;28;101928;-65
2023/07/09 02:19:26;;;;;;;6.43;5.83;;;;;;;18.68;100.00;96789.81;4992965;28;105296;-64
2023/07/09 02:21:53;;;;;;;8.80;6.63;;;;;;;18.64;100.00;96796.91;5010521;28;105856;-64
2023/07/09 02:24:24;;;;;;;7.23;5.83;;;;;;;18.62;100.00;96793.69;5011129;28;101729;-64
2023/07/09 02:26:52;;;;;;;6.43;5.80;;;;;;;18.55;100.00;96806.72;5011215;28;105200;-64
2023/07/09 02:29:19;;;;;;;6.67;5.97;;;;;;;18.65;100.00;96803.91;5028660;28;105455;-64
2023/07/09 02:31:46;;;;;;;7.50;6.30;;;;;;;18.64;100.00;96799.59;5030353;28;102033;-65
2023/07/09 02:34:14;;;;;;;6.40;5.70;;;;;;;18.82;100.00;96798.78;5033272;28;105740;-64
2023/07/09 02:36:43;;;;;;;6.43;5.73;;;;;;;18.85;100.00;96803.63;5032447;27;101846;-64
2023/07/09 02:39:11;;;;;;;7.10;6.17;;;;;;;18.68;100.00;96806.81;5026477;28;105451;-64
2023/07/09 02:41:38;;;;;;;7.43;6.07;;;;;;;18.70;100.00;96806.53;5016457;28;105510;-64
2023/07/09 02:44:07;;;;;;;6.97;5.97;;;;;;;18.64;100.00;96805.00;5010596;28;101999;-64
2023/07/09 02:46:35;;;;;;;6.33;5.73;;;;;;;18.63;100.00;96809.56;5010488;28;105533;-64
2023/07/09 02:49:05;;;;;;;8.00;5.70;;;;;;;18.65;100.00;96817.38;5025608;28;103903;-64
2023/07/09 02:51:34;;;;;;;6.17;5.50;;;;;;;18.71;100.00;96811.63;5021333;28;102098;-64
2023/07/09 02:54:03;;;;;;;6.90;5.87;;;;;;;18.76;100.00;96802.66;5010827;28;103759;-64
2023/07/09 02:56:31;;;;;;;7.57;6.13;;;;;;;18.76;100.00;96805.34;5014359;28;102492;-64
2023/07/09 02:58:58;;;;;;;8.20;6.07;;;;;;;18.72;100.00;96807.00;5010519;28;105408;-64
2023/07/09 03:01:27;;;;;;;5.97;5.27;;;;;;;18.69;100.00;96807.63;5015469;28;105367;-64
2023/07/09 03:03:54;;;;;;;7.23;5.40;;;;;;;18.62;100.00;96807.97;5030604;28;101864;-64
2023/07/09 03:06:23;;;;;;;8.13;6.10;;;;;;;18.67;100.00;96807.09;5027485;27;103492;-64
2023/07/09 03:08:50;;;;;;;7.03;5.97;;;;;;;18.67;100.00;96809.78;5014676;28;105593;-64
2023/07/09 03:11:17;;;;;;;7.00;5.93;;;;;;;18.55;100.00;96818.31;5010335;28;101979;-64
2023/07/09 03:13:45;;;;;;;9.73;5.90;;;;;;;18.43;100.00;96825.22;5010429;28;105624;-65
2023/07/09 03:16:12;;;;;;;6.37;5.60;;;;;;;18.49;100.00;96832.13;5017405;28;105325;-64
2023/07/09 03:18:41;;;;;;;6.47;5.17;;;;;;;18.44;100.00;96832.19;5026911;28;102083;-64
2023/07/09 03:21:08;;;;;;;9.50;6.43;;;;;;;18.37;100.00;96831.75;5029610;28;106595;-64
2023/07/09 03:23:34;;;;;;;8.17;6.33;;;;;;;18.32;100.00;96834.50;5030291;28;101981;-65
2023/07/09 03:26:01;;;;;;;9.60;5.60;;;;;;;18.32;100.00;96839.88;5031118;27;102339;-65
2023/07/09 03:28:28;;;;;;;7.03;6.17;;;;;;;18.43;100.00;96833.28;5017024;28;105450;-64
2023/07/09 03:30:56;;;;;;;7.87;6.00;;;;;;;18.56;100.00;96835.25;5009411;28;101904;-65
2023/07/09 03:33:23;;;;;;;6.30;5.70;;;;;;;18.53;100.00;96841.25;5029382;28;102499;-64
2023/07/09 03:35:53;;;;;;;8.53;5.93;;;;;;;18.47;100.00;96842.41;5027845;28;105428;-65
2023/07/09 03:38:20;;;;;;;6.77;5.90;;;;;;;18.40;100.00;96848.13;5013215;28;102006;-65
2023/07/09 03:40:50;;;;;;;7.60;5.67;;;;;;;18.38;100.00;96844.94;5031676;28;105387;-64
2023/07/09 03:43:17;;;;;;;7.17;5.97;;;;;;;18.35;100.00;96844.69;5031562;27;101694;-65
2023/07/09 03:45:45;;;;;;;7.13;6.17;;;;;;;18.35;100.00;96850.88;5029802;28;105610;-65
2023/07/09 03:48:12;;;;;;;6.03;5.43;;;;;;;18.47;100.00;96847.78;5020482;28;105781;-65
2023/07/09 03:50:39;;;;;;;9.13;6.00;;;;;;;18.49;100.00;96840.22;5029768;28;101882;-66
2023/07/09 03:53:07;;;;;;;6.37;5.60;;;;;;;18.54;100.00;96842.84;5029477;28;105133;-65
2023/07/09 03:55:34;;;;;;;8.07;6.10;;;;;;;18.67;100.00;96852.88;5028833;28;104086;-65
2023/07/09 03:58:02;;;;;;;8.30;6.50;;;;;;;18.73;100.00;96847.16;5028770;27;101886;-65
2023/07/09 04:00:29;;;;;;;8.77;5.60;;;;;;;18.76;100.00;96845.78;5029661;28;103464;-65
2023/07/09 04:02:57;;;;;;;7.93;5.47;;;;;;;18.77;100.00;96852.75;5013871;28;103732;-65
2023/07/09 04:05:24;;;;;;;5.47;4.90;;;;;;;18.79;100.00;96847.88;5010889;28;102509;-65
2023/07/09 04:07:51;;;;;;;6.10;4.93;;;;;;;18.77;100.00;96858.16;5021895;28;105341;-66
2023/07/09 04:10:20;;;;;;;6.57;5.37;;;;;;;18.84;100.00;96842.41;5030530;27;101954;-66
2023/07/09 04:12:47;;;;;;;6.27;5.50;;;;;;;18.87;100.00;96842.66;5030944;27;102897;-66
2023/07/09 04:15:14;;;;;;;7.53;6.00;;;;;;;18.98;100.00;96836.03;5028946;28;105413;-66
2023/07/09 04:17:41;;;;;;;7.00;5.57;;;;;;;19.01;100.00;96848.13;5029277;28;101863;-66
2023/07/09 04:20:10;;;;;;;6.23;5.50;;;;;;;19.09;100.00;96844.75;5030919;27;102445;-65
2023/07/09 04:22:37;;;;;;;8.47;6.33;;;;;;;19.17;100.00;96852.16;5033165;28;102702;-65
2023/07/09 04:25:07;;;;;;;7.23;5.50;;;;;;;19.18;100.00;96854.56;5030604;27;102384;-66
2023/07/09 04:27:35;;;;;;;7.63;5.73;;;;;;;19.30;100.00;96856.84;5019030;28;102653;-65
2023/07/09 04:30:02;;;;;;;6.33;5.70;;;;;;;19.33;100.00;96856.25;5010801;28;101846;-65
2023/07/09 04:32:29;;;;;;;6.77;5.60;;;;;;;19.30;100.00;96862.25;5010127;28;102719;-65
2023/07/09 04:34:56;;;;;;;7.57;5.47;;;;;;;19.35;100.00;96859.47;5008495;28;105725;-65
2023/07/09 04:37:23;;;;;;;6.00;5.20;;;;;;;19.41;100.00;96858.28;5019098;28;101878;-66
2023/07/09 04:39:50;;;;;;;6.97;5.70;;;;;;;19.46;100.00;96858.22;5029038;28;105082;-63
2023/07/09 04:42:18;;;;;;;8.03;6.30;;;;;;;19.53;100.00;96861.31;5029915;27;103045;-64
2023/07/09 04:44:47;;;;;;;7.43;5.97;;;;;;;19.60;100.00;96864.44;5033879;27;101899;-65
2023/07/09 04:47:14;;;;;;;8.27;5.93;;;;;;;19.71;100.00;96853.19;5017261;28;105997;-65
2023/07/09 04:49:41;;;;;;;6.13;5.40;;;;;;;19.87;100.00;96868.00;5012069;28;101984;-66
2023/07/09 04:52:10;;;;;;;7.27;6.20;;;;;;;19.98;100.00;96857.81;5030392;27;102455;-66
2023/07/09 04:54:39;;;;;;;6.27;5.47;;;;;;;20.13;100.00;96860.28;5029719;27;102698;-65
2023/07/09 04:57:07;;;;;;;6.60;5.93;;;;;;;20.15;100.00;96866.97;5026160;28;101811;-65
2023/07/09 04:59:34;;;;;;;8.57;6.30;;;;;;;20.20;100.00;96866.06;5008699;28;105752;-66
2023/07/09 05:02:02;;;;;;;6.73;6.03;;;;;;;20.27;100.00;96861.09;5008229;28;105501;-63
2023/07/09 05:04:29;;;;;;;6.60;6.00;;;;;;;20.29;100.00;96866.97;5010221;28;101945;-64
2023/07/09 05:06:57;;;;;;;7.80;6.60;;;;;;;20.30;100.00;96864.00;5012515;28;104849;-65
2023/07/09 05:09:24;;;;;;;10.73;7.70;;;;;;;20.31;100.00;96865.59;5027884;27;101886;-67
2023/07/09 05:11:51;;;;;;;10.57;7.00;;;;;;;20.47;100.00;96861.47;5033755;28;102451;-67
2023/07/09 05:14:18;;;;;;;9.57;6.40;;;;;;;20.70;100.00;96867.78;5031657;28;105641;-66
2023/07/09 05:16:46;;;;;;;9.83;6.10;;;;;;;20.97;100.00;96867.72;5030433;28;101975;-65
2023/07/09 05:19:14;;;;;;;13.47;5.97;;;;;;;21.24;100.00;96867.66;5033537;27;102310;-65
2023/07/09 05:21:41;;;;;;;9.47;6.33;;;;;;;21.34;100.00;96865.53;5031084;28;105726;-64
2023/07/09 05:24:09;;;;;;;12.57;6.10;;;;;;;21.63;100.00;96867.81;5033533;27;101886;-70
2023/07/09 05:26:36;;;;;;;7.50;5.70;;;;;;;21.63;100.00;96873.22;5031942;28;105310;-64
2023/07/09 05:29:04;;;;;;;8.73;5.87;;;;;;;21.77;100.00;96869.34;5034719;28;105538;-64
2023/07/09 05:31:32;;;;;;;6.90;6.10;;;;;;;21.88;100.00;96869.88;5031725;28;105337;-63
2023/07/09 05:33:59;;;;;;;10.43;6.03;;;;;;;21.97;100.00;96866.09;5031513;28;105220;-63
2023/07/09 05:36:29;;;;;;;8.57;5.67;;;;;;;22.06;100.00;96868.88;5031878;28;101903;-64
2023/07/09 05:38:56;;;;;;;7.83;5.73;;;;;;;22.21;100.00;96869.28;4991762;28;105261;-64
2023/07/09 05:41:23;;;;;;;7.70;5.30;;;;;;;22.30;100.00;96874.72;4991157;28;105520;-64
2023/07/09 05:43:50;;;;;;;8.07;6.33;;;;;;;22.30;100.00;96877.44;4991726;28;102171;-64
2023/07/09 05:46:17;;;;;;;9.37;5.87;;;;;;;22.38;100.00;96880.19;5002021;28;104022;-64
2023/07/09 05:48:44;;;;;;;9.57;5.57;;;;;;;22.40;100.00;96883.38;5010927;28;103900;-64
2023/07/09 05:51:11;;;;;;;6.87;5.37;;;;;;;22.14;100.00;96884.38;5016331;28;101824;-64
2023/07/09 05:53:40;;;;;;;9.53;5.90;;;;;;;22.29;100.00;96886.69;5011066;28;105323;-64
2023/07/09 05:56:06;;;;;;;7.87;5.47;;;;;;;22.44;100.00;96888.97;5012669;28;101875;-64
2023/07/09 05:58:33;;;;;;;8.23;5.70;;;;;;;22.22;100.00;96892.53;5012864;28;102570;-64
2023/07/09 06:01:00;;;;;;;7.77;5.70;;;;;;;22.36;100.00;96890.53;5010901;28;105520;-64
2023/07/09 06:03:28;;;;;;;7.07;5.10;;;;;;;22.28;100.00;96885.88;5012600;28;102079;-64
2023/07/09 06:05:55;;;;;;;5.43;4.77;;;;;;;22.50;100.00;96893.97;5011123;28;105414;-65
2023/07/09 06:08:22;;;;;;;9.57;5.30;;;;;;;22.63;100.00;96889.53;5026178;28;105720;-64
2023/07/09 06:10:56;;;;;;;7.00;5.17;;;;;;;22.38;100.00;96884.78;5031540;28;101872;-64
2023/07/09 06:13:24;;;;;;;6.23;5.30;;;;;;;22.55;100.00;96887.63;5035790;27;102873;-64
2023/07/09 06:15:52;;;;;;;8.83;5.40;;;;;;;22.80;100.00;96886.88;5031353;28;101937;-65
2023/07/09 06:18:19;;;;;;;5.33;4.77;;;;;;;22.77;100.00;96887.53;5032660;27;102972;-64
2023/07/09 06:20:50;;;;;;;8.40;5.20;;;;;;;22.92;100.00;96887.88;5031329;27;102483;-64
2023/07/09 06:23:17;;;;;;;6.83;5.43;;;;;;;23.22;100.00;96889.66;5032656;27;101852;-64
2023/07/09 06:25:47;;;;;;;8.07;5.20;;;;;;;23.27;100.00;96888.75;5032436;28;102635;-64
2023/07/09 06:28:15;;;;;;;6.93;5.27;;;;;;;23.61;100.00;96892.25;5030617;28;105465;-65
2023/07/09 06:30:42;;;;;;;5.50;5.00;;;;;;;23.74;100.00;96890.47;5030901;28;101955;-67
2023/07/09 06:33:10;;;;;;;5.70;4.40;;;;;;;24.06;100.00;96893.47;5033960;28;105568;-66
2023/07/09 06:35:37;;;;;;;8.83;5.37;;;;;;;24.26;100.00;96887.31;5031001;28;101989;-67
2023/07/09 06:38:04;;;;;;;5.43;4.80;;;;;;;24.34;100.00;96894.66;5030929;28;105328;-66
2023/07/09 06:40:31;;;;;;;6.47;4.63;;;;;;;24.30;100.00;96892.94;5031822;27;102753;-66
2023/07/09 06:42:58;;;;;;;5.27;4.77;;;;;;;23.72;100.00;96892.72;5032132;27;101883;-66
2023/07/09 06:45:34;;;;;;;5.37;4.80;;;;;;;23.99;100.00;96897.81;5032493;28;102368;-66
2023/07/09 06:48:01;;;;;;;6.00;4.60;;;;;;;24.34;100.00;96894.66;5025243;27;102786;-66
2023/07/09 06:50:28;;;;;;;4.57;4.10;;;;;;;24.37;100.00;96898.66;5023227;28;101970;-66
2023/07/09 06:52:55;;;;;;;5.70;4.73;;;;;;;24.76;100.00;96896.44;5032140;27;102809;-67
2023/07/09 06:55:22;;;;;;;6.33;4.60;;;;;;;24.94;100.00;96897.13;5033359;28;105567;-66
2023/07/09 06:57:49;;;;;;;5.13;4.40;;;;;;;25.22;100.00;96892.78;5029551;27;102355;-67
2023/07/09 07:00:16;;;;;;;6.27;4.70;;;;;;;24.97;100.00;96891.03;5029930;28;105354;-66
2023/07/09 07:02:45;;;;;;;6.67;3.87;;;;;;;24.96;100.00;96892.94;5023861;28;101957;-66
2023/07/09 07:05:12;;;;;;;6.97;4.60;;;;;;;25.10;100.00;96884.53;5022685;28;102478;-66
2023/07/09 07:07:39;;;;;;;4.93;4.20;;;;;;;25.33;100.00;96894.81;5031578;27;102607;-67
2023/07/09 07:10:06;;;;;;;5.73;4.13;;;;;;;25.34;100.00;96885.50;5017919;28;102463;-67
2023/07/09 07:12:43;;;;;;;5.17;4.20;;;;;;;25.50;100.00;96883.78;5011742;28;102592;-67
2023/07/09 07:15:10;;;;;;;5.13;4.63;;;;;;;25.51;100.00;96879.91;5009775;28;104320;-62
2023/07/09 07:17:37;;;;;;;5.03;4.30;;;;;;;25.79;100.00;96878.25;5013501;28;102001;-65
2023/07/09 07:20:07;;;;;;;5.20;4.13;;;;;;;25.78;100.00;96887.53;5009573;28;105338;-63
2023/07/09 07:22:33;;;;;;;6.57;4.60;;;;;;;25.78;100.00;96884.78;5011368;28;102030;-63
2023/07/09 07:25:00;;;;;;;5.10;4.00;;;;;;;25.86;100.00;96885.84;5010182;28;105785;-64
2023/07/09 07:27:27;;;;;;;4.87;4.10;;;;;;;26.21;100.00;96887.13;5010394;28;102521;-64
2023/07/09 07:29:54;;;;;;;4.40;4.00;;;;;;;26.24;100.00;96886.44;5012986;28;101933;-64
2023/07/09 07:32:21;;;;;;;6.17;4.20;;;;;;;26.36;100.00;96883.72;5028747;27;103886;-62
2023/07/09 07:34:49;;;;;;;4.80;4.13;;;;;;;26.35;100.00;96882.13;5028008;28;105926;-63
2023/07/09 07:37:20;;;;;;;6.30;4.13;;;;;;;25.83;100.00;96881.09;5011292;28;102001;-61
2023/07/09 07:39:47;;;;;;;8.33;4.30;;;;;;;26.41;100.00;96878.03;5012862;28;105644;-66
2023/07/09 07:42:14;;;;;;;4.30;3.90;;;;;;;26.48;100.00;96878.31;5009852;28;101913;-65
2023/07/09 07:44:41;;;;;;;4.40;4.00;;;;;;;26.87;100.00;96883.13;5024135;28;105544;-65
2023/07/09 07:47:08;;;;;;;5.50;3.80;;;;;;;27.08;100.00;96876.38;5030418;27;102494;-65
2023/07/09 07:49:35;;;;;;;6.00;3.90;;;;;;;27.23;100.00;96877.63;5031053;27;101915;-65
2023/07/09 07:52:03;;;;;;;5.40;3.90;;;;;;;27.26;100.00;96874.22;5029878;28;105470;-65
2023/07/09 07:54:31;;;;;;;3.97;3.57;;;;;;;27.62;100.00;96874.09;5029156;28;105285;-65
2023/07/09 07:56:58;;;;;;;6.10;3.83;;;;;;;27.66;100.00;96872.25;5030880;28;101972;-65
2023/07/09 07:59:25;;;;;;;4.90;3.47;;;;;;;27.19;100.00;96868.53;5029020;28;105545;-65
2023/07/09 08:01:52;;;;;;;4.57;3.53;;;;;;;27.55;100.00;96869.22;5029124;27;102617;-65
2023/07/09 08:04:19;;;;;;;6.80;3.57;;;;;;;27.64;100.00;96863.63;5031137;27;102388;-65
2023/07/09 08:06:46;;;;;;;4.20;3.30;;;;;;;27.93;100.00;96868.75;5028846;28;105441;-65
2023/07/09 08:09:13;;;;;;;3.40;3.10;;;;;;;27.88;100.00;96856.13;5023744;28;101834;-65
2023/07/09 08:11:42;;;;;;;5.17;3.50;;;;;;;28.27;100.00;96860.69;5009406;28;104750;-65
2023/07/09 08:14:08;;;;;;;5.88;3.20;;;;;;;28.05;85.47;96857.72;5008653;28;105207;-65
2023/07/09 08:16:35;;;;;;;5.50;3.15;;;;;;;27.97;86.13;96859.50;5010376;28;101960;-65
2023/07/09 08:19:02;;;;;;;5.23;3.30;;;;;;;28.21;99.46;96862.09;5010346;28;102576;-65
2023/07/09 08:21:29;;;;;;;3.80;3.03;;;;;;;28.36;74.74;96852.31;5008562;28;105488;-65
2023/07/09 08:23:56;;;;;;;6.60;3.40;;;;;;;28.39;94.55;96868.06;5014086;28;101840;-65
2023/07/09 08:26:24;;;;;;;4.55;3.60;;;;;;;28.79;94.69;96855.75;5008795;28;105279;-65
2023/07/09 08:28:53;;;;;;;4.05;2.90;;;;;;;29.00;76.59;96859.03;5010745;28;101807;-65
2023/07/09 08:31:20;;;;;;;4.50;3.20;;;;;;;29.21;74.13;96862.22;5008573;28;103875;-65
2023/07/09 08:33:47;;;;;;;4.88;3.50;;;;;;;28.96;72.96;96857.31;5029721;28;102517;-65
2023/07/09 08:36:14;;;;;;;3.80;3.20;;;;;;;28.94;68.56;96857.66;5029172;28;101994;-65
2023/07/09 08:38:40;;;;;;;3.10;2.90;;;;;;;29.17;62.12;96857.81;5030512;27;102389;-65
2023/07/09 08:41:17;;;;;;;5.55;3.42;;;;;;;29.37;62.88;96862.19;5028533;27;102582;-65
2023/07/09 08:44:04;;;;;;;4.30;3.42;;;;;;;29.27;60.41;96852.56;5032165;28;101833;-65
2023/07/09 08:46:40;;;;;;;3.30;3.00;;;;;;;28.90;59.65;96851.34;5029680;27;102644;-65
2023/07/09 08:49:20;;;;;;;5.60;2.97;;;;;;;29.74;64.84;96857.91;5010494;27;102326;-65
2023/07/09 08:51:49;;;;;;;3.10;2.80;;;;;;;29.28;56.67;96850.63;5026587;28;105772;-65
2023/07/09 08:54:23;;;;;;;4.10;3.53;;;;;;;29.69;56.93;96850.75;5029518;28;103098;-65
2023/07/09 08:56:50;;;;;;;6.05;3.30;;;;;;;29.70;58.45;96851.56;5028028;28;101892;-65
2023/07/09 08:59:21;;;;;;;3.78;3.40;;;;;;;30.02;60.33;96848.25;5027718;28;105814;-65
2023/07/09 09:01:52;;;;;;;3.42;2.90;;;;;;;30.24;56.23;96854.97;5028524;27;102757;-65
2023/07/09 09:04:22;;;;;;;4.70;3.03;;;;;;;30.32;51.21;96845.69;5027862;28;101927;-64
2023/07/09 09:06:58;;;;;;;3.42;3.10;;;;;;;30.49;51.75;96850.69;5030704;28;105633;-65
2023/07/09 09:09:31;;;;;;;4.55;3.40;;;;;;;30.99;52.85;96850.31;5029352;27;102158;-65
2023/07/09 09:12:05;;;;;;;4.25;3.22;;;;;;;31.14;58.84;96854.88;5027870;28;103541;-65
2023/07/09 09:14:37;;;;;;;4.13;3.10;;;;;;;30.86;57.45;96855.25;5027155;28;105812;-65
2023/07/09 09:17:12;;;;;;;3.88;3.20;;;;;;;30.90;59.67;96850.59;5027725;28;101832;-65
2023/07/09 09:19:46;;;;;;;4.25;3.38;;;;;;;30.89;55.13;96853.72;5029226;27;102925;-65
2023/07/09 09:22:16;;;;;;;4.30;3.53;;;;;;;30.86;53.29;96851.72;5028291;27;102614;-65
2023/07/09 09:24:56;;;;;;;5.22;3.55;;;;;;;30.98;54.26;96848.75;5028999;27;101821;-65
2023/07/09 09:27:23;;;;;;;4.45;3.53;;;;;;;30.58;52.86;96846.53;5027797;28;105328;-65
2023/07/09 09:29:52;;;;;;;5.63;3.42;;;;;;;30.60;47.29;96851.66;5030135;28;105497;-65
2023/07/09 09:32:24;;;;;;;4.30;3.25;;;;;;;30.67;49.88;96846.31;5028548;27;101796;-65
2023/07/09 09:34:50;;;;;;;6.25;3.67;;;;;;;30.95;51.40;96846.75;5028425;27;102686;-66
2023/07/09 09:37:26;;;;;;;3.78;3.35;;;;;;;30.85;49.18;96848.16;5027569;28;101855;-66
2023/07/09 09:39:53;;;;;;;5.25;3.63;;;;;;;31.48;54.73;96849.09;5029442;27;102434;-65
2023/07/09 09:42:20;;;;;;;5.65;3.55;;;;;;;31.48;54.56;96846.34;5028003;28;103200;-66
2023/07/09 09:44:48;;;;;;;5.03;3.38;;;;;;;31.83;53.11;96848.75;5028919;27;101892;-65
2023/07/09 09:47:16;;;;;;;4.15;3.75;;;;;;;31.92;52.62;96849.28;5028808;27;102948;-65
2023/07/09 09:49:44;;;;;;;3.67;3.35;;;;;;;32.18;51.37;96849.13;5026912;28;105812;-66
2023/07/09 09:52:14;;;;;;;4.20;3.80;;;;;;;32.58;43.13;96840.91;5030853;28;102133;-65
2023/07/09 09:54:46;;;;;;;3.80;3.40;;;;;;;32.48;44.03;96838.84;5028398;28;102723;-66
2023/07/09 09:57:18;;;;;;;5.43;3.58;;;;;;;32.64;39.75;96839.38;5030836;27;102223;-66
2023/07/09 09:59:47;;;;;;;3.45;3.13;;;;;;;32.82;42.54;96840.31;5030856;28;105640;-66
2023/07/09 10:02:27;;;;;;;5.15;3.33;;;;;;;32.74;39.64;96842.19;5030105;28;105299;-66
2023/07/09 10:04:54;;;;;;;3.88;3.40;;;;;;;32.19;36.91;96839.69;5030774;28;101792;-66
2023/07/09 10:07:27;;;;;;;3.92;3.42;;;;;;;32.27;36.98;96838.66;5030768;28;105181;-65
2023/07/09 10:09:55;;;;;;;5.15;3.50;;;;;;;32.55;37.27;96836.13;5031722;27;102596;-65
2023/07/09 10:12:38;;;;;;;4.57;2.90;;;;;;;32.96;38.27;96840.44;5030904;28;101883;-66
2023/07/09 10:15:16;;;;;;;3.33;3.03;;;;;;;32.78;36.89;96831.22;5035305;27;102497;-65
2023/07/09 10:17:54;;;;;;;4.20;3.25;;;;;;;32.66;35.39;96826.00;5030573;28;101855;-66
2023/07/09 10:20:26;;;;;;;5.70;3.45;;;;;;;31.73;35.73;96833.72;5032111;27;102317;-66
2023/07/09 10:22:58;;;;;;;5.38;3.30;;;;;;;31.88;37.83;96837.44;5031307;27;102990;-65
2023/07/09 10:25:37;;;;;;;3.78;3.35;;;;;;;32.21;36.19;96837.38;5032102;27;102060;-66
2023/07/09 10:28:23;;;;;;;3.28;2.97;;;;;;;32.57;35.34;96833.78;5031761;28;102923;-66
2023/07/09 10:31:05;;;;;;;3.20;2.85;;;;;;;32.38;34.72;96837.59;5029278;28;105293;-66
2023/07/09 10:33:42;;;;;;;3.85;2.90;;;;;;;31.78;35.64;96836.16;5032004;28;101953;-66
2023/07/09 10:36:25;;;;;;;3.70;2.92;;;;;;;32.63;34.97;96827.56;5031906;27;102473;-65
2023/07/09 10:38:59;;;;;;;2.85;2.55;;;;;;;32.32;35.37;96827.28;5034520;27;101698;-65
2023/07/09 10:41:26;;;;;;;4.80;3.13;;;;;;;32.46;33.75;96832.91;5031562;28;102814;-65
2023/07/09 10:43:59;;;;;;;4.78;2.65;;;;;;;32.28;34.69;96831.97;5030927;27;102457;-66
2023/07/09 10:46:29;;;;;;;5.05;3.10;;;;;;;32.39;35.66;96830.09;5030206;28;102170;-65
2023/07/09 10:49:00;;;;;;;4.05;2.90;;;;;;;32.12;35.83;96834.13;5030153;28;105958;-65
2023/07/09 10:51:30;;;;;;;3.58;2.58;;;;;;;32.48;34.94;96830.59;5031029;27;102505;-65
2023/07/09 10:53:59;;;;;;;3.45;2.60;;;;;;;33.06;34.13;96834.97;5031518;27;101860;-66
2023/07/09 10:56:29;;;;;;;3.33;3.03;;;;;;;32.93;34.83;96830.16;5029659;28;105572;-65
2023/07/09 10:59:05;;;;;;;3.20;2.90;;;;;;;33.37;34.13;96830.84;5034269;27;102601;-65
2023/07/09 11:01:36;;;;;;;6.45;3.22;;;;;;;32.37;35.39;96832.44;5030055;28;105320;-65
2023/07/09 11:04:09;;;;;;;4.20;3.00;;;;;;;32.01;35.85;96822.22;5029316;28;105285;-66
2023/07/09 11:06:41;;;;;;;3.22;2.88;;;;;;;32.73;35.52;96821.34;5031272;27;102090;-65
2023/07/09 11:09:18;;;;;;;4.47;3.08;;;;;;;32.43;37.18;96826.19;5031426;27;102330;-66
2023/07/09 11:11:50;;;;;;;3.28;2.97;;;;;;;33.29;37.99;96823.72;5029050;28;105644;-66
2023/07/09 11:14:27;;;;;;;5.13;2.88;;;;;;;33.83;38.20;96823.59;5031178;27;101711;-66
2023/07/09 11:16:57;;;;;;;4.18;3.30;;;;;;;33.90;39.44;96820.84;5031262;28;102378;-66
2023/07/09 11:19:25;;;;;;;6.35;3.13;;;;;;;33.64;34.96;96815.59;5030221;27;102680;-65
2023/07/09 11:22:03;;;;;;;4.47;3.08;;;;;;;33.55;34.03;96804.13;5032893;28;101965;-65
2023/07/09 11:24:37;;;;;;;4.25;3.13;;;;;;;33.37;35.08;96809.59;5030312;27;102591;-65
2023/07/09 11:27:17;;;;;;;3.53;3.00;;;;;;;32.82;34.28;96808.06;5029402;28;101928;-65
2023/07/09 11:29:47;;;;;;;3.30;3.00;;;;;;;33.47;34.42;96808.03;5030904;27;102881;-65